Arkansas City, Kansas
Current Conditions -  °F | °C
As of 12:54 AM on Monday 24 Nov 2014 (Local Time) from KWLD Reporting Station
Clear Clear  
Wind Chill: 32°   Ceiling: Unl
Heat Index: 39°   Visibility: 10mi
Dew Point: 30°   Wind: 12mph
Humidity: 70%   Direction: 310°NW
Pressure: 29.73"   Gusts: NA
Location:  37.06°N, 97.04°W
Report Text: KWLD 240654Z AUTO 31010KT 10SM CLR 04/M01 A2973 RMK AO2 SLP068 T00391011
Loading
Personal Weather Stations






























Interactive Weather Map New forecast layout! Learn more

10-Day Weather Forecast

Advertisements
Track Severe Weather on mobile